Time,TemperatureF,DewpointF,PressureIn,WindDirection,WindDirectionDegrees,WindSpeedMPH,WindSpeedGustMPH,Humidity,HourlyPrecipIn,Conditions,Clouds,dailyrainin,SoftwareType,DateUTC
2013-09-26 00:00:00,67.5,56.9,29.76,SE,125,5.0,7.0,69,0.00,CLR,CLR,0.00,WeatherDisplay:10.37,2013-09-26 05:00:00,
2013-09-26 00:06:00,67.5,56.9,29.76,SE,144,5.0,6.0,69,0.00,CLR,CLR,0.00,WeatherDisplay:10.37,2013-09-26 05:06:00,
2013-09-26 00:12:00,67.5,56.9,29.76,ESE,122,5.0,9.0,69,0.00,CLR,CLR,0.00,WeatherDisplay:10.37,2013-09-26 05:12:00,
2013-09-26 00:18:00,67.3,56.7,29.76,SE,127,6.0,10.0,69,0.00,CLR,CLR,0.00,WeatherDisplay:10.37,2013-09-26 05:18:00,
2013-09-26 00:24:00,67.3,56.7,29.76,SE,143,5.0,7.0,69,0.00,CLR,CLR,0.00,WeatherDisplay:10.37,2013-09-26 05:24:00,
2013-09-26 00:30:00,67.3,56.7,29.76,ESE,102,5.0,7.0,69,0.00,CLR,CLR,0.00,WeatherDisplay:10.37,2013-09-26 05:30:00,
2013-09-26 00:36:00,67.1,56.9,29.76,ENE,63,3.0,5.0,70,0.00,CLR,CLR,0.00,WeatherDisplay:10.37,2013-09-26 05:36:00,
2013-09-26 00:42:00,67.0,56.9,29.76,SSE,162,3.0,5.0,70,0.00,CLR,CLR,0.00,WeatherDisplay:10.37,2013-09-26 05:42:00,
2013-09-26 00:48:00,66.8,57.1,29.76,SSE,159,5.0,5.0,71,0.00,CLR,CLR,0.00,WeatherDisplay:10.37,2013-09-26 05:48:00,
2013-09-26 00:54:00,66.8,57.1,29.77,NNE,21,0.0,7.0,71,0.00,CLR,CLR,0.00,WeatherDisplay:10.37,2013-09-26 05:54:00,
2013-09-26 01:00:00,66.6,56.9,29.77,ENE,64,3.0,6.0,71,0.00,CLR,CLR,0.00,WeatherDisplay:10.37,2013-09-26 06:00:00,
2013-09-26 01:06:00,66.6,56.9,29.77,SE,139,1.0,8.0,71,0.00,CLR,CLR,0.00,WeatherDisplay:10.37,2013-09-26 06:06:00,
2013-09-26 01:12:00,66.2,56.9,29.77,SSE,151,3.0,7.0,72,0.00,CLR,CLR,0.00,WeatherDisplay:10.37,2013-09-26 06:12:00,
2013-09-26 01:18:00,66.1,56.9,29.76,SSE,156,0.0,6.0,72,0.00,CLR,CLR,0.00,WeatherDisplay:10.37,2013-09-26 06:18:00,
2013-09-26 01:24:00,66.0,56.7,29.76,NE,53,3.0,5.0,72,0.00,CLR,CLR,0.00,WeatherDisplay:10.37,2013-09-26 06:24:00,
2013-09-26 01:30:00,65.9,57.0,29.77,ESE,107,3.0,6.0,73,0.00,CLR,CLR,0.00,WeatherDisplay:10.37,2013-09-26 06:30:00,
2013-09-26 01:36:00,65.8,56.9,29.77,ESE,116,3.0,6.0,73,0.00,CLR,CLR,0.00,WeatherDisplay:10.37,2013-09-26 06:36:00,
2013-09-26 01:42:00,65.7,56.8,29.76,East,82,2.0,5.0,73,0.00,CLR,CLR,0.00,WeatherDisplay:10.37,2013-09-26 06:42:00,
2013-09-26 01:48:00,65.5,56.6,29.77,ESE,103,2.0,5.0,73,0.00,CLR,CLR,0.00,WeatherDisplay:10.37,2013-09-26 06:48:00,
2013-09-26 01:54:00,65.5,56.6,29.77,ESE,113,0.0,0.0,73,0.00,CLR,CLR,0.00,WeatherDisplay:10.37,2013-09-26 06:54:00,
2013-09-26 02:00:00,65.8,56.9,29.77,SE,131,5.0,9.0,73,0.00,CLR,CLR,0.00,WeatherDisplay:10.37,2013-09-26 07:00:00,
2013-09-26 02:06:00,65.7,56.8,29.77,SE,132,3.0,6.0,73,0.00,CLR,CLR,0.00,WeatherDisplay:10.37,2013-09-26 07:06:00,
2013-09-26 02:12:00,65.7,56.8,29.77,SSE,152,3.0,5.0,73,0.00,CLR,CLR,0.00,WeatherDisplay:10.37,2013-09-26 07:12:00,
2013-09-26 02:18:00,65.7,56.8,29.76,SSE,152,5.0,8.0,73,0.00,CLR,CLR,0.00,WeatherDisplay:10.37,2013-09-26 07:18:00,
2013-09-26 02:24:00,65.5,56.6,29.76,ESE,104,5.0,5.0,73,0.00,CLR,CLR,0.00,WeatherDisplay:10.37,2013-09-26 07:24:00,
2013-09-26 02:30:00,65.3,56.4,29.76,East,90,6.0,10.0,73,0.00,CLR,CLR,0.00,WeatherDisplay:10.37,2013-09-26 07:30:00,
2013-09-26 02:36:00,65.2,56.7,29.76,South,189,5.0,9.0,74,0.00,CLR,CLR,0.00,WeatherDisplay:10.37,2013-09-26 07:36:00,
2013-09-26 02:42:00,65.2,56.7,29.76,SE,140,5.0,7.0,74,0.00,CLR,CLR,0.00,WeatherDisplay:10.37,2013-09-26 07:42:00,
2013-09-26 02:48:00,65.2,56.7,29.76,SSE,151,5.0,6.0,74,0.00,CLR,CLR,0.00,WeatherDisplay:10.37,2013-09-26 07:48:00,
2013-09-26 02:54:00,64.8,56.6,29.77,ESE,122,3.0,9.0,75,0.00,CLR,CLR,0.00,WeatherDisplay:10.37,2013-09-26 07:54:00,
2013-09-26 03:00:00,64.6,56.5,29.77,SE,135,3.0,7.0,75,0.00,CLR,CLR,0.00,WeatherDisplay:10.37,2013-09-26 08:00:00,
2013-09-26 03:09:00,64.4,56.6,29.77,SE,134,7.0,9.0,76,0.00,CLR,CLR,0.00,WeatherDisplay:10.37,2013-09-26 08:09:00,
2013-09-26 03:15:00,64.4,56.6,29.76,ESE,120,1.0,5.0,76,0.00,CLR,CLR,0.00,WeatherDisplay:10.37,2013-09-26 08:15:00,
2013-09-26 03:21:00,64.4,56.6,29.76,ESE,121,0.0,3.0,76,0.00,CLR,CLR,0.00,WeatherDisplay:10.37,2013-09-26 08:21:00,
2013-09-26 03:27:00,64.4,56.6,29.76,SSE,158,5.0,9.0,76,0.00,CLR,CLR,0.00,WeatherDisplay:10.37,2013-09-26 08:27:00,
2013-09-26 03:33:00,64.4,56.6,29.76,SE,145,5.0,6.0,76,0.00,CLR,CLR,0.00,WeatherDisplay:10.37,2013-09-26 08:33:00,
2013-09-26 03:39:00,64.3,56.5,29.77,SE,129,1.0,8.0,76,0.00,CLR,CLR,0.00,WeatherDisplay:10.37,2013-09-26 08:39:00,
2013-09-26 03:45:00,64.3,56.5,29.77,SE,136,0.0,4.0,76,0.00,CLR,CLR,0.00,WeatherDisplay:10.37,2013-09-26 08:45:00,
2013-09-26 03:51:00,64.2,56.4,29.77,ESE,121,3.0,7.0,76,0.00,CLR,CLR,0.00,WeatherDisplay:10.37,2013-09-26 08:51:00,
2013-09-26 03:57:00,64.1,56.3,29.77,SSE,149,5.0,7.0,76,0.00,CLR,CLR,0.00,WeatherDisplay:10.37,2013-09-26 08:57:00,
2013-09-26 04:03:00,64.1,56.3,29.76,SSE,147,3.0,4.0,76,0.00,CLR,CLR,0.00,WeatherDisplay:10.37,2013-09-26 09:03:00,
2013-09-26 04:09:00,64.1,56.3,29.76,SE,133,5.0,8.0,76,0.00,CLR,CLR,0.00,WeatherDisplay:10.37,2013-09-26 09:09:00,
2013-09-26 04:15:00,63.9,56.1,29.77,ESE,119,5.0,7.0,76,0.00,CLR,CLR,0.00,WeatherDisplay:10.37,2013-09-26 09:15:00,
2013-09-26 04:21:00,64.1,56.3,29.77,SE,138,6.0,9.0,76,0.00,CLR,CLR,0.00,WeatherDisplay:10.37,2013-09-26 09:21:00,
2013-09-26 04:27:00,64.1,56.0,29.76,SE,138,3.0,9.0,75,0.00,CLR,CLR,0.00,WeatherDisplay:10.37,2013-09-26 09:27:00,
2013-09-26 04:33:00,64.1,56.0,29.76,SE,130,3.0,6.0,75,0.00,CLR,CLR,0.00,WeatherDisplay:10.37,2013-09-26 09:33:00,
2013-09-26 04:39:00,64.4,55.9,29.77,SE,146,6.0,9.0,74,0.00,CLR,CLR,0.00,WeatherDisplay:10.37,2013-09-26 09:39:00,
2013-09-26 04:45:00,64.4,55.9,29.77,SSE,168,7.0,10.0,74,0.00,CLR,CLR,0.00,WeatherDisplay:10.37,2013-09-26 09:45:00,
2013-09-26 04:51:00,64.4,55.5,29.77,SSE,165,7.0,13.0,73,0.00,CLR,CLR,0.00,WeatherDisplay:10.37,2013-09-26 09:51:00,
2013-09-26 04:57:00,64.4,55.5,29.77,South,179,5.0,7.0,73,0.00,CLR,CLR,0.00,WeatherDisplay:10.37,2013-09-26 09:57:00,
2013-09-26 05:03:00,64.4,55.5,29.76,SE,136,6.0,9.0,73,0.00,CLR,CLR,0.00,WeatherDisplay:10.37,2013-09-26 10:03:00,
2013-09-26 05:09:00,64.3,55.4,29.76,SE,140,5.0,7.0,73,0.00,CLR,CLR,0.00,WeatherDisplay:10.37,2013-09-26 10:09:00,
2013-09-26 05:15:00,64.3,55.4,29.77,SE,143,6.0,8.0,73,0.00,CLR,CLR,0.00,WeatherDisplay:10.37,2013-09-26 10:15:00,
2013-09-26 05:21:00,64.3,55.4,29.77,SSE,162,6.0,9.0,73,0.00,CLR,CLR,0.00,WeatherDisplay:10.37,2013-09-26 10:21:00,
2013-09-26 05:27:00,64.1,55.2,29.76,SE,144,7.0,9.0,73,0.00,CLR,CLR,0.00,WeatherDisplay:10.37,2013-09-26 10:27:00,
2013-09-26 05:36:00,64.1,55.2,29.76,SE,132,5.0,7.0,73,0.00,CLR,CLR,0.00,WeatherDisplay:10.37,2013-09-26 10:36:00,
2013-09-26 05:42:00,63.9,55.0,29.76,SSE,148,5.0,6.0,73,0.00,CLR,CLR,0.00,WeatherDisplay:10.37,2013-09-26 10:42:00,
2013-09-26 05:48:00,63.9,55.0,29.77,ESE,109,5.0,9.0,73,0.00,CLR,CLR,0.00,WeatherDisplay:10.37,2013-09-26 10:48:00,
2013-09-26 05:54:00,63.9,55.0,29.77,SE,127,5.0,5.0,73,0.00,CLR,CLR,0.00,WeatherDisplay:10.37,2013-09-26 10:54:00,
2013-09-26 06:00:00,63.8,55.0,29.77,SE,128,5.0,6.0,73,0.00,CLR,CLR,0.00,WeatherDisplay:10.37,2013-09-26 11:00:00,
2013-09-26 06:06:00,63.7,54.8,29.77,SE,132,3.0,7.0,73,0.00,CLR,CLR,0.00,WeatherDisplay:10.37,2013-09-26 11:06:00,
2013-09-26 06:12:00,63.7,54.8,29.77,SE,135,3.0,5.0,73,0.00,CLR,CLR,0.00,WeatherDisplay:10.37,2013-09-26 11:12:00,
2013-09-26 06:18:00,63.5,54.6,29.77,ESE,109,2.0,7.0,73,0.00,CLR,CLR,0.00,WeatherDisplay:10.37,2013-09-26 11:18:00,
2013-09-26 06:24:00,63.5,54.6,29.77,SE,140,5.0,12.0,73,0.00,CLR,CLR,0.00,WeatherDisplay:10.37,2013-09-26 11:24:00,
2013-09-26 06:30:00,63.7,54.8,29.77,SSE,150,3.0,9.0,73,0.00,CLR,CLR,0.00,WeatherDisplay:10.37,2013-09-26 11:30:00,
2013-09-26 06:36:00,63.7,54.8,29.77,SSE,160,5.0,7.0,73,0.00,CLR,CLR,0.00,WeatherDisplay:10.37,2013-09-26 11:36:00,
2013-09-26 06:42:00,63.7,54.8,29.77,SSE,155,5.0,8.0,73,0.00,CLR,CLR,0.00,WeatherDisplay:10.37,2013-09-26 11:42:00,
2013-09-26 06:48:00,63.8,54.6,29.77,SE,134,8.0,12.0,72,0.00,CLR,CLR,0.00,WeatherDisplay:10.37,2013-09-26 11:48:00,
2013-09-26 06:54:00,64.1,54.5,29.77,East,80,6.0,8.0,71,0.00,CLR,CLR,0.00,WeatherDisplay:10.37,2013-09-26 11:54:00,
2013-09-26 07:00:00,64.0,54.4,29.78,SSE,151,5.0,6.0,71,0.00,CLR,CLR,0.00,WeatherDisplay:10.37,2013-09-26 12:00:00,
2013-09-26 07:06:00,64.3,54.3,29.78,SSE,150,6.0,9.0,70,0.00,CLR,CLR,0.00,WeatherDisplay:10.37,2013-09-26 12:06:00,
2013-09-26 07:12:00,64.3,54.3,29.78,SE,136,6.0,12.0,70,0.00,CLR,CLR,0.00,WeatherDisplay:10.37,2013-09-26 12:12:00,
2013-09-26 07:18:00,64.4,54.4,29.78,South,182,3.0,6.0,70,0.00,CLR,CLR,0.00,WeatherDisplay:10.37,2013-09-26 12:18:00,
2013-09-26 07:24:00,64.6,54.2,29.78,SSE,168,6.0,7.0,69,0.00,CLR,CLR,0.00,WeatherDisplay:10.37,2013-09-26 12:24:00,
2013-09-26 07:30:00,64.4,54.0,29.79,SSE,149,6.0,8.0,69,0.00,CLR,CLR,0.00,WeatherDisplay:10.37,2013-09-26 12:30:00,
2013-09-26 07:36:00,64.4,54.0,29.79,SE,146,2.0,8.0,69,0.00,CLR,CLR,0.00,WeatherDisplay:10.37,2013-09-26 12:36:00,
2013-09-26 07:42:00,64.4,54.0,29.79,ESE,102,5.0,9.0,69,0.00,CLR,CLR,0.00,WeatherDisplay:10.37,2013-09-26 12:42:00,
2013-09-26 07:48:00,64.4,54.0,29.79,SE,128,5.0,15.0,69,0.00,CLR,CLR,0.00,WeatherDisplay:10.37,2013-09-26 12:48:00,
2013-09-26 07:54:00,64.6,54.2,29.79,SSE,152,6.0,9.0,69,0.00,CLR,CLR,0.00,WeatherDisplay:10.37,2013-09-26 12:54:00,
2013-09-26 08:00:00,64.8,54.3,29.79,SSE,164,5.0,10.0,69,0.00,CLR,CLR,0.00,WeatherDisplay:10.37,2013-09-26 13:00:00,
2013-09-26 08:06:00,65.0,54.1,29.80,SE,142,5.0,9.0,68,0.00,FEW,FEW,0.00,WeatherDisplay:10.37,2013-09-26 13:06:00,
2013-09-26 08:12:00,65.0,54.1,29.80,SSE,153,5.0,9.0,68,0.00,FEW,FEW,0.00,WeatherDisplay:10.37,2013-09-26 13:12:00,
2013-09-26 08:18:00,65.5,54.2,29.80,SE,144,5.0,9.0,67,0.00,FEW,FEW,0.00,WeatherDisplay:10.37,2013-09-26 13:18:00,
2013-09-26 08:24:00,65.8,54.1,29.80,South,178,7.0,10.0,66,0.00,FEW,FEW,0.00,WeatherDisplay:10.37,2013-09-26 13:24:00,
2013-09-26 08:30:00,66.1,54.8,29.80,SSE,168,7.0,13.0,67,0.00,FEW,FEW,0.00,WeatherDisplay:10.37,2013-09-26 13:30:00,
2013-09-26 08:36:00,66.4,54.7,29.80,SSE,147,5.0,8.0,66,0.00,FEW,FEW,0.00,WeatherDisplay:10.37,2013-09-26 13:36:00,
2013-09-26 08:42:00,66.6,54.8,29.80,SE,143,6.0,9.0,66,0.00,FEW,FEW,0.00,WeatherDisplay:10.37,2013-09-26 13:42:00,
2013-09-26 08:48:00,67.0,54.8,29.80,SSE,158,6.0,7.0,65,0.00,FEW,FEW,0.00,WeatherDisplay:10.37,2013-09-26 13:48:00,
2013-09-26 08:54:00,67.3,54.7,29.80,South,173,6.0,10.0,64,0.00,FEW,FEW,0.00,WeatherDisplay:10.37,2013-09-26 13:54:00,
2013-09-26 09:00:00,67.7,55.1,29.80,SE,128,6.0,8.0,64,0.00,FEW,FEW,0.00,WeatherDisplay:10.37,2013-09-26 14:00:00,
2013-09-26 09:06:00,68.4,54.8,29.80,SSE,150,7.0,10.0,62,0.00,FEW,FEW,0.00,WeatherDisplay:10.37,2013-09-26 14:06:00,
2013-09-26 09:12:00,68.8,54.8,29.80,SSE,151,9.0,13.0,61,0.00,FEW,FEW,0.00,WeatherDisplay:10.37,2013-09-26 14:12:00,
2013-09-26 09:18:00,69.7,54.2,29.80,SSE,162,6.0,15.0,58,0.00,FEW,FEW,0.00,WeatherDisplay:10.37,2013-09-26 14:18:00,
2013-09-26 09:24:00,70.0,54.0,29.80,SSE,165,10.0,13.0,57,0.00,FEW,FEW,0.00,WeatherDisplay:10.37,2013-09-26 14:24:00,
2013-09-26 09:30:00,70.6,53.6,29.80,SSE,150,8.0,23.0,55,0.00,FEW,FEW,0.00,WeatherDisplay:10.37,2013-09-26 14:30:00,
2013-09-26 09:36:00,71.1,54.1,29.80,South,178,8.0,13.0,55,0.00,FEW,FEW,0.00,WeatherDisplay:10.37,2013-09-26 14:36:00,
2013-09-26 09:42:00,71.5,54.4,29.81,South,172,2.0,13.0,55,0.00,FEW,FEW,0.00,WeatherDisplay:10.37,2013-09-26 14:42:00,
2013-09-26 09:48:00,72.0,54.4,29.81,SE,145,9.0,22.0,54,0.00,FEW,FEW,0.00,WeatherDisplay:10.37,2013-09-26 14:48:00,
2013-09-26 09:54:00,72.5,54.4,29.81,South,169,9.0,15.0,53,0.00,FEW,FEW,0.00,WeatherDisplay:10.37,2013-09-26 14:54:00,
2013-09-26 10:00:00,73.1,54.9,29.81,SSE,156,7.0,13.0,53,0.00,FEW,FEW,0.00,WeatherDisplay:10.37,2013-09-26 15:00:00,
2013-09-26 10:06:00,73.6,54.3,29.81,SSE,159,10.0,19.0,51,0.00,FEW,FEW,0.00,WeatherDisplay:10.37,2013-09-26 15:06:00,
2013-09-26 10:12:00,74.2,55.4,29.81,South,174,8.0,13.0,52,0.00,FEW,FEW,0.00,WeatherDisplay:10.37,2013-09-26 15:12:00,
2013-09-26 10:18:00,74.5,55.1,29.81,SSE,166,9.0,14.0,51,0.00,FEW,FEW,0.00,WeatherDisplay:10.37,2013-09-26 15:18:00,
2013-09-26 10:24:00,74.7,54.8,29.81,SE,146,15.0,19.0,50,0.00,FEW,FEW,0.00,WeatherDisplay:10.37,2013-09-26 15:24:00,
2013-09-26 10:30:00,74.8,54.9,29.81,SE,141,12.0,14.0,50,0.00,FEW,FEW,0.00,WeatherDisplay:10.37,2013-09-26 15:30:00,
2013-09-26 10:36:00,75.1,55.7,29.81,SE,132,6.0,10.0,51,0.00,FEW,FEW,0.00,WeatherDisplay:10.37,2013-09-26 15:36:00,
2013-09-26 10:42:00,75.4,55.4,29.81,SSE,156,10.0,18.0,50,0.00,FEW,FEW,0.00,WeatherDisplay:10.37,2013-09-26 15:42:00,
2013-09-26 10:48:00,75.8,55.8,29.81,SSE,159,13.0,15.0,50,0.00,FEW,FEW,0.00,WeatherDisplay:10.37,2013-09-26 15:48:00,
2013-09-26 10:54:00,76.0,56.0,29.81,South,182,10.0,16.0,50,0.00,FEW,FEW,0.00,WeatherDisplay:10.37,2013-09-26 15:54:00,
2013-09-26 11:00:00,76.5,56.4,29.81,South,181,13.0,17.0,50,0.00,FEW,FEW,0.00,WeatherDisplay:10.37,2013-09-26 16:00:00,
2013-09-26 11:06:00,76.9,56.8,29.81,South,170,5.0,5.0,50,0.00,FEW,FEW,0.00,WeatherDisplay:10.37,2013-09-26 16:06:00,
2013-09-26 11:12:00,76.9,56.8,29.81,SSE,157,5.0,5.0,50,0.00,FEW,FEW,0.00,WeatherDisplay:10.37,2013-09-26 16:12:00,
2013-09-26 11:30:00,79.4,58.0,29.82,South,173,6.0,16.0,48,0.00,FEW,FEW,0.00,WeatherDisplay:10.37,2013-09-26 16:30:00,
2013-09-26 11:36:00,79.8,57.1,29.81,SSE,152,10.0,15.0,46,0.00,FEW,FEW,0.00,WeatherDisplay:10.37,2013-09-26 16:36:00,
2013-09-26 11:42:00,80.6,57.3,29.81,SSE,153,12.0,16.0,45,0.00,FEW,FEW,0.00,WeatherDisplay:10.37,2013-09-26 16:42:00,
2013-09-26 11:48:00,81.0,57.6,29.81,SSE,161,10.0,14.0,45,0.00,FEW,FEW,0.00,WeatherDisplay:10.37,2013-09-26 16:48:00,
2013-09-26 11:54:00,81.6,57.5,29.81,South,182,10.0,18.0,44,0.00,FEW,FEW,0.00,WeatherDisplay:10.37,2013-09-26 16:54:00,
2013-09-26 12:00:00,81.9,57.2,29.81,South,177,10.0,21.0,43,0.00,FEW,FEW,0.00,WeatherDisplay:10.37,2013-09-26 17:00:00,
2013-09-26 12:06:00,82.4,58.9,29.81,South,180,6.0,10.0,45,0.00,FEW,FEW,0.00,WeatherDisplay:10.37,2013-09-26 17:06:00,
2013-09-26 12:12:00,83.2,57.7,29.81,South,174,13.0,18.0,42,0.00,FEW,FEW,0.00,WeatherDisplay:10.37,2013-09-26 17:12:00,
2013-09-26 12:18:00,83.4,57.9,29.80,South,170,8.0,17.0,42,0.00,FEW,FEW,0.00,WeatherDisplay:10.37,2013-09-26 17:18:00,
2013-09-26 12:24:00,83.5,58.7,29.80,SSE,154,10.0,17.0,43,0.00,FEW,FEW,0.00,WeatherDisplay:10.37,2013-09-26 17:24:00,
2013-09-26 12:30:00,83.9,58.3,29.80,SE,142,10.0,17.0,42,0.00,FEW,FEW,0.00,WeatherDisplay:10.37,2013-09-26 17:30:00,
2013-09-26 12:36:00,84.1,58.6,29.80,SE,139,7.0,9.0,42,0.00,FEW,FEW,0.00,WeatherDisplay:10.37,2013-09-26 17:36:00,
2013-09-26 12:42:00,84.7,58.4,29.80,SE,134,14.0,18.0,41,0.00,FEW,FEW,0.00,WeatherDisplay:10.37,2013-09-26 17:42:00,
2013-09-26 12:48:00,85.2,58.1,29.80,SE,145,9.0,14.0,40,0.00,FEW,FEW,0.00,WeatherDisplay:10.37,2013-09-26 17:48:00,
2013-09-26 12:54:00,85.6,59.2,29.79,ESE,119,8.0,13.0,41,0.00,FEW,FEW,0.00,WeatherDisplay:10.37,2013-09-26 17:54:00,
2013-09-26 13:00:00,86.8,59.5,29.79,ESE,123,6.0,18.0,40,0.00,FEW,FEW,0.00,WeatherDisplay:10.37,2013-09-26 18:00:00,
2013-09-26 13:06:00,86.8,58.8,29.79,ESE,107,8.0,13.0,39,0.00,FEW,FEW,0.00,WeatherDisplay:10.37,2013-09-26 18:06:00,
2013-09-26 13:12:00,86.8,58.9,29.79,SSE,151,10.0,17.0,39,0.00,FEW,FEW,0.00,WeatherDisplay:10.37,2013-09-26 18:12:00,
2013-09-26 13:18:00,87.2,58.5,29.79,SSE,148,10.0,18.0,38,0.00,FEW,FEW,0.00,WeatherDisplay:10.37,2013-09-26 18:18:00,
2013-09-26 13:24:00,87.5,58.7,29.79,SE,142,12.0,14.0,38,0.00,FEW,FEW,0.00,WeatherDisplay:10.37,2013-09-26 18:24:00,
2013-09-26 13:30:00,87.7,58.9,29.78,SSE,160,9.0,21.0,38,0.00,FEW,FEW,0.00,WeatherDisplay:10.37,2013-09-26 18:30:00,
2013-09-26 13:36:00,88.4,60.3,29.78,SSE,147,7.0,15.0,39,0.00,FEW,FEW,0.00,WeatherDisplay:10.37,2013-09-26 18:36:00,
2013-09-26 13:42:00,89.0,59.4,29.77,ESE,111,12.0,17.0,37,0.00,FEW,FEW,0.00,WeatherDisplay:10.37,2013-09-26 18:42:00,
2013-09-26 13:48:00,89.5,60.5,29.77,SSE,158,7.0,10.0,38,0.00,FEW,FEW,0.00,WeatherDisplay:10.37,2013-09-26 18:48:00,
2013-09-26 13:54:00,89.4,59.7,29.77,SE,146,10.0,20.0,37,0.00,FEW,FEW,0.00,WeatherDisplay:10.37,2013-09-26 18:54:00,
2013-09-26 14:03:00,90.0,60.2,29.77,South,171,10.0,13.0,37,0.00,FEW,FEW,0.00,WeatherDisplay:10.37,2013-09-26 19:03:00,
2013-09-26 14:09:00,89.5,59.8,29.77,SE,142,10.0,22.0,37,0.00,FEW,FEW,0.00,WeatherDisplay:10.37,2013-09-26 19:09:00,
2013-09-26 14:15:00,89.8,60.0,29.77,SSE,152,9.0,18.0,37,0.00,FEW,FEW,0.00,WeatherDisplay:10.37,2013-09-26 19:15:00,
2013-09-26 14:21:00,90.0,59.4,29.77,ESE,123,9.0,15.0,36,0.00,FEW,FEW,0.00,WeatherDisplay:10.37,2013-09-26 19:21:00,
2013-09-26 14:27:00,90.4,59.8,29.76,SE,135,10.0,13.0,36,0.00,FEW,FEW,0.00,WeatherDisplay:10.37,2013-09-26 19:27:00,
2013-09-26 14:33:00,90.0,59.4,29.76,SSE,155,12.0,22.0,36,0.00,FEW,FEW,0.00,WeatherDisplay:10.37,2013-09-26 19:33:00,
2013-09-26 14:39:00,90.4,59.8,29.76,SSW,193,9.0,15.0,36,0.00,FEW,FEW,0.00,WeatherDisplay:10.37,2013-09-26 19:39:00,
2013-09-26 14:45:00,90.6,60.0,29.76,South,179,10.0,20.0,36,0.00,FEW,FEW,0.00,WeatherDisplay:10.37,2013-09-26 19:45:00,
2013-09-26 14:51:00,90.7,59.3,29.75,SSE,157,9.0,15.0,35,0.00,FEW,FEW,0.00,WeatherDisplay:10.37,2013-09-26 19:51:00,
2013-09-26 14:57:00,90.5,59.1,29.75,SSE,155,9.0,19.0,35,0.00,FEW,FEW,0.00,WeatherDisplay:10.37,2013-09-26 19:57:00,
2013-09-26 15:03:00,90.9,58.7,29.75,South,170,9.0,14.0,34,0.00,FEW,FEW,0.00,WeatherDisplay:10.37,2013-09-26 20:03:00,
2013-09-26 15:09:00,91.2,59.7,29.75,SE,141,8.0,16.0,35,0.00,FEW,FEW,0.00,WeatherDisplay:10.37,2013-09-26 20:09:00,
2013-09-26 15:15:00,91.1,58.8,29.75,SSE,149,12.0,16.0,34,0.00,FEW,FEW,0.00,WeatherDisplay:10.37,2013-09-26 20:15:00,
2013-09-26 15:21:00,91.1,58.0,29.75,SSE,152,12.0,20.0,33,0.00,FEW,FEW,0.00,WeatherDisplay:10.37,2013-09-26 20:21:00,
2013-09-26 15:27:00,91.3,58.1,29.75,SSE,149,14.0,17.0,33,0.00,FEW,FEW,0.00,WeatherDisplay:10.37,2013-09-26 20:27:00,
2013-09-26 15:33:00,91.1,58.0,29.75,SSE,149,10.0,14.0,33,0.00,FEW,FEW,0.00,WeatherDisplay:10.37,2013-09-26 20:33:00,
2013-09-26 15:39:00,91.3,58.2,29.75,SE,143,9.0,16.0,33,0.00,FEW,FEW,0.00,WeatherDisplay:10.37,2013-09-26 20:39:00,
2013-09-26 15:45:00,91.3,58.1,29.75,ESE,117,8.0,16.0,33,0.00,FEW,FEW,0.00,WeatherDisplay:10.37,2013-09-26 20:45:00,
2013-09-26 15:51:00,91.3,58.2,29.74,SE,132,10.0,18.0,33,0.00,FEW,FEW,0.00,WeatherDisplay:10.37,2013-09-26 20:51:00,
2013-09-26 15:57:00,91.4,58.2,29.74,SSE,159,13.0,18.0,33,0.00,FEW,FEW,0.00,WeatherDisplay:10.37,2013-09-26 20:57:00,
2013-09-26 16:03:00,91.3,57.3,29.74,South,179,13.0,22.0,32,0.00,FEW,FEW,0.00,WeatherDisplay:10.37,2013-09-26 21:03:00,
2013-09-26 16:09:00,91.1,58.0,29.74,South,171,13.0,22.0,33,0.00,FEW,FEW,0.00,WeatherDisplay:10.37,2013-09-26 21:09:00,
2013-09-26 16:15:00,90.8,56.9,29.74,South,183,10.0,19.0,32,0.00,FEW,FEW,0.00,WeatherDisplay:10.37,2013-09-26 21:15:00,
2013-09-26 16:21:00,91.1,56.2,29.74,SE,133,15.0,20.0,31,0.00,FEW,FEW,0.00,WeatherDisplay:10.37,2013-09-26 21:21:00,
2013-09-26 16:27:00,91.1,57.1,29.74,SSE,151,10.0,18.0,32,0.00,FEW,FEW,0.00,WeatherDisplay:10.37,2013-09-26 21:27:00,
2013-09-26 16:33:00,90.8,56.9,29.74,SSW,206,18.0,21.0,32,0.00,FEW,FEW,0.00,WeatherDisplay:10.37,2013-09-26 21:33:00,
2013-09-26 16:39:00,90.7,56.8,29.74,South,185,12.0,16.0,32,0.00,FEW,FEW,0.00,WeatherDisplay:10.37,2013-09-26 21:39:00,
2013-09-26 16:45:00,90.7,55.9,29.74,SSE,164,15.0,20.0,31,0.00,FEW,FEW,0.00,WeatherDisplay:10.37,2013-09-26 21:45:00,
2013-09-26 16:51:00,90.7,57.6,29.75,SSW,192,10.0,17.0,33,0.00,FEW,FEW,0.00,WeatherDisplay:10.37,2013-09-26 21:51:00,
2013-09-26 16:57:00,90.0,57.0,29.75,SSE,153,14.0,26.0,33,0.00,FEW,FEW,0.00,WeatherDisplay:10.37,2013-09-26 21:57:00,
2013-09-26 17:03:00,90.0,57.8,29.75,SE,138,10.0,17.0,34,0.00,FEW,FEW,0.00,WeatherDisplay:10.37,2013-09-26 22:03:00,
2013-09-26 17:09:00,90.0,57.8,29.75,SSE,158,6.0,22.0,34,0.00,FEW,FEW,0.00,WeatherDisplay:10.37,2013-09-26 22:09:00,
2013-09-26 17:15:00,89.6,57.5,29.75,SSE,161,12.0,22.0,34,0.00,FEW,FEW,0.00,WeatherDisplay:10.37,2013-09-26 22:15:00,
2013-09-26 17:21:00,88.8,57.7,29.75,SSE,158,12.0,20.0,35,0.00,FEW,FEW,0.00,WeatherDisplay:10.37,2013-09-26 22:21:00,
2013-09-26 17:27:00,88.6,57.4,29.75,South,188,8.0,16.0,35,0.00,FEW,FEW,0.00,WeatherDisplay:10.37,2013-09-26 22:27:00,
2013-09-26 17:33:00,88.6,57.4,29.75,SSW,198,8.0,10.0,35,0.00,FEW,FEW,0.00,WeatherDisplay:10.37,2013-09-26 22:33:00,
2013-09-26 17:39:00,88.0,57.7,29.75,SE,141,12.0,17.0,36,0.00,FEW,FEW,0.00,WeatherDisplay:10.37,2013-09-26 22:39:00,
2013-09-26 17:45:00,88.4,58.0,29.75,SE,143,10.0,24.0,36,0.00,FEW,FEW,0.00,WeatherDisplay:10.37,2013-09-26 22:45:00,
2013-09-26 17:51:00,88.4,58.0,29.75,SSE,159,14.0,19.0,36,0.00,FEW,FEW,0.00,WeatherDisplay:10.37,2013-09-26 22:51:00,
2013-09-26 17:57:00,88.0,59.2,29.75,South,169,7.0,18.0,38,0.00,FEW,FEW,0.00,WeatherDisplay:10.37,2013-09-26 22:57:00,
2013-09-26 18:03:00,87.3,59.3,29.74,SE,145,6.0,9.0,39,0.00,FEW,FEW,0.00,WeatherDisplay:10.37,2013-09-26 23:03:00,
2013-09-26 18:09:00,87.1,59.1,29.74,ESE,115,8.0,13.0,39,0.00,FEW,FEW,0.00,WeatherDisplay:10.37,2013-09-26 23:09:00,
2013-09-26 18:15:00,86.9,59.6,29.75,South,184,6.0,10.0,40,0.00,FEW,FEW,0.00,WeatherDisplay:10.37,2013-09-26 23:15:00,
2013-09-26 18:21:00,86.6,59.4,29.75,SE,126,9.0,18.0,40,0.00,FEW,FEW,0.00,WeatherDisplay:10.37,2013-09-26 23:21:00,
2013-09-26 18:27:00,86.6,60.1,29.75,SE,125,7.0,14.0,41,0.00,FEW,FEW,0.00,WeatherDisplay:10.37,2013-09-26 23:27:00,
2013-09-26 18:33:00,86.4,59.2,29.75,SSE,148,8.0,12.0,40,0.00,SCT,SCT,0.00,WeatherDisplay:10.37,2013-09-26 23:33:00,
2013-09-26 18:39:00,86.2,59.7,29.75,SE,141,7.0,12.0,41,0.00,SCT,SCT,0.00,WeatherDisplay:10.37,2013-09-26 23:39:00,
2013-09-26 18:45:00,85.7,59.3,29.75,SE,139,6.0,8.0,41,0.00,SCT,SCT,0.00,WeatherDisplay:10.37,2013-09-26 23:45:00,
2013-09-26 18:51:00,85.3,59.6,29.75,SE,130,5.0,9.0,42,0.00,SCT,SCT,0.00,WeatherDisplay:10.37,2013-09-26 23:51:00,
2013-09-26 18:57:00,85.1,59.4,29.75,ESE,121,7.0,12.0,42,0.00,SCT,SCT,0.00,WeatherDisplay:10.37,2013-09-26 23:57:00,
2013-09-26 19:03:00,84.5,59.5,29.75,SSE,161,6.0,8.0,43,0.00,SCT,SCT,0.00,WeatherDisplay:10.37,2013-09-27 00:03:00,
2013-09-26 19:12:00,84.1,59.2,29.75,SE,127,6.0,9.0,43,0.00,SCT,SCT,0.00,WeatherDisplay:10.37,2013-09-27 00:12:00,
2013-09-26 19:18:00,83.6,59.3,29.76,SE,133,6.0,14.0,44,0.00,SCT,SCT,0.00,WeatherDisplay:10.37,2013-09-27 00:18:00,
2013-09-26 19:24:00,83.1,59.5,29.76,SE,128,5.0,6.0,45,0.00,SCT,SCT,0.00,WeatherDisplay:10.37,2013-09-27 00:24:00,
2013-09-26 19:30:00,82.6,59.7,29.76,ESE,102,6.0,9.0,46,0.00,SCT,SCT,0.00,WeatherDisplay:10.37,2013-09-27 00:30:00,
2013-09-26 19:36:00,82.4,59.5,29.76,ESE,117,7.0,20.0,46,0.00,SCT,SCT,0.00,WeatherDisplay:10.37,2013-09-27 00:36:00,
2013-09-26 19:42:00,82.3,59.4,29.76,SE,143,6.0,8.0,46,0.00,SCT,SCT,0.00,WeatherDisplay:10.37,2013-09-27 00:42:00,
2013-09-26 19:48:00,82.1,59.2,29.76,SE,132,6.0,9.0,46,0.00,SCT,SCT,0.00,WeatherDisplay:10.37,2013-09-27 00:48:00,
2013-09-26 19:54:00,81.7,59.5,29.77,SE,125,6.0,7.0,47,0.00,SCT,SCT,0.00,WeatherDisplay:10.37,2013-09-27 00:54:00,
2013-09-26 20:00:00,81.7,59.5,29.77,SSE,161,10.0,10.0,47,0.00,SCT,SCT,0.00,WeatherDisplay:10.37,2013-09-27 01:00:00,
2013-09-26 20:06:00,81.7,59.5,29.77,South,180,10.0,10.0,47,0.00,FEW,FEW,0.00,WeatherDisplay:10.37,2013-09-27 01:06:00,
2013-09-26 20:12:00,81.7,59.5,29.77,South,180,10.0,10.0,47,0.00,FEW,FEW,0.00,WeatherDisplay:10.37,2013-09-27 01:12:00,
2013-09-26 20:18:00,81.7,59.5,29.77,South,180,10.0,10.0,47,0.00,FEW,FEW,0.00,WeatherDisplay:10.37,2013-09-27 01:18:00,
2013-09-26 20:24:00,80.8,58.7,29.77,SSE,156,5.0,8.0,47,0.00,FEW,FEW,0.00,WeatherDisplay:10.37,2013-09-27 01:24:00,
2013-09-26 20:30:00,80.3,58.8,29.77,SSE,166,5.0,7.0,48,0.00,FEW,FEW,0.00,WeatherDisplay:10.37,2013-09-27 01:30:00,
2013-09-26 20:36:00,79.9,59.0,29.77,South,173,3.0,8.0,49,0.00,FEW,FEW,0.00,WeatherDisplay:10.37,2013-09-27 01:36:00,
2013-09-26 20:42:00,79.7,58.9,29.78,SE,129,5.0,6.0,49,0.00,FEW,FEW,0.00,WeatherDisplay:10.37,2013-09-27 01:42:00,
2013-09-26 20:48:00,79.7,59.4,29.78,SE,131,6.0,9.0,50,0.00,FEW,FEW,0.00,WeatherDisplay:10.37,2013-09-27 01:48:00,
2013-09-26 20:54:00,79.4,59.7,29.79,SSE,156,6.0,13.0,51,0.00,FEW,FEW,0.00,WeatherDisplay:10.37,2013-09-27 01:54:00,
2013-09-26 21:00:00,79.0,59.8,29.79,SSE,150,3.0,9.0,52,0.00,FEW,FEW,0.00,WeatherDisplay:10.37,2013-09-27 02:00:00,
2013-09-26 21:06:00,79.0,59.8,29.79,ESE,117,6.0,8.0,52,0.00,FEW,FEW,0.00,WeatherDisplay:10.37,2013-09-27 02:06:00,
2013-09-26 21:12:00,79.2,60.0,29.79,SSE,165,7.0,8.0,52,0.00,FEW,FEW,0.00,WeatherDisplay:10.37,2013-09-27 02:12:00,
2013-09-26 21:18:00,79.2,60.0,29.79,SSE,158,6.0,10.0,52,0.00,FEW,FEW,0.00,WeatherDisplay:10.37,2013-09-27 02:18:00,
2013-09-26 21:24:00,79.0,59.8,29.80,South,174,6.0,14.0,52,0.00,FEW,FEW,0.00,WeatherDisplay:10.37,2013-09-27 02:24:00,
2013-09-26 21:30:00,79.0,59.8,29.80,South,170,7.0,12.0,52,0.00,FEW,FEW,0.00,WeatherDisplay:10.37,2013-09-27 02:30:00,
2013-09-26 21:36:00,79.0,59.8,29.80,SSE,163,7.0,9.0,52,0.00,FEW,FEW,0.00,WeatherDisplay:10.37,2013-09-27 02:36:00,
2013-09-26 21:42:00,78.9,59.7,29.80,SE,142,7.0,12.0,52,0.00,FEW,FEW,0.00,WeatherDisplay:10.37,2013-09-27 02:42:00,
2013-09-26 21:48:00,78.7,59.6,29.80,ESE,117,7.0,15.0,52,0.00,FEW,FEW,0.00,WeatherDisplay:10.37,2013-09-27 02:48:00,
2013-09-26 21:54:00,78.6,59.5,29.80,SE,130,6.0,13.0,52,0.00,FEW,FEW,0.00,WeatherDisplay:10.37,2013-09-27 02:54:00,
2013-09-26 22:00:00,78.3,59.2,29.80,ESE,116,5.0,8.0,52,0.00,FEW,FEW,0.00,WeatherDisplay:10.37,2013-09-27 03:00:00,
2013-09-26 22:06:00,78.0,58.9,29.80,ESE,109,5.0,7.0,52,0.00,FEW,FEW,0.00,WeatherDisplay:10.37,2013-09-27 03:06:00,
2013-09-26 22:12:00,78.0,58.9,29.80,SE,136,5.0,9.0,52,0.00,FEW,FEW,0.00,WeatherDisplay:10.37,2013-09-27 03:12:00,
2013-09-26 22:18:00,77.8,58.7,29.81,SSE,151,6.0,7.0,52,0.00,FEW,FEW,0.00,WeatherDisplay:10.37,2013-09-27 03:18:00,
2013-09-26 22:24:00,77.4,58.9,29.81,SSE,155,5.0,7.0,53,0.00,FEW,FEW,0.00,WeatherDisplay:10.37,2013-09-27 03:24:00,
2013-09-26 22:30:00,77.2,59.2,29.81,SE,137,5.0,6.0,54,0.00,FEW,FEW,0.00,WeatherDisplay:10.37,2013-09-27 03:30:00,
2013-09-26 22:36:00,77.0,59.0,29.81,ESE,118,5.0,9.0,54,0.00,CLR,CLR,0.00,WeatherDisplay:10.37,2013-09-27 03:36:00,
2013-09-26 22:42:00,76.7,58.8,29.81,SE,137,5.0,7.0,54,0.00,CLR,CLR,0.00,WeatherDisplay:10.37,2013-09-27 03:42:00,
2013-09-26 22:48:00,76.3,58.9,29.81,SSE,149,7.0,13.0,55,0.00,CLR,CLR,0.00,WeatherDisplay:10.37,2013-09-27 03:48:00,
2013-09-26 22:54:00,76.0,58.6,29.82,SSE,168,3.0,8.0,55,0.00,CLR,CLR,0.00,WeatherDisplay:10.37,2013-09-27 03:54:00,
2013-09-26 23:00:00,75.6,58.8,29.82,SSW,198,5.0,13.0,56,0.00,CLR,CLR,0.00,WeatherDisplay:10.37,2013-09-27 04:00:00,
2013-09-26 23:03:00,75.6,58.8,29.82,SE,139,3.0,6.0,56,0.00,CLR,CLR,0.00,WeatherDisplay:10.37,2013-09-27 04:03:00,
2013-09-26 23:09:00,75.4,59.1,29.82,SE,126,6.0,9.0,57,0.00,CLR,CLR,0.00,WeatherDisplay:10.37,2013-09-27 04:09:00,
2013-09-26 23:12:00,75.4,59.1,29.82,SSE,158,6.0,8.0,57,0.00,CLR,CLR,0.00,WeatherDisplay:10.37,2013-09-27 04:12:00,
2013-09-26 23:15:00,75.2,58.9,29.82,ESE,123,5.0,8.0,57,0.00,CLR,CLR,0.00,WeatherDisplay:10.37,2013-09-27 04:15:00,
2013-09-26 23:21:00,75.1,58.8,29.82,ESE,121,7.0,10.0,57,0.00,CLR,CLR,0.00,WeatherDisplay:10.37,2013-09-27 04:21:00,
2013-09-26 23:27:00,74.9,58.6,29.82,ESE,103,7.0,10.0,57,0.00,CLR,CLR,0.00,WeatherDisplay:10.37,2013-09-27 04:27:00,
2013-09-26 23:33:00,74.7,58.9,29.82,ESE,118,6.0,9.0,58,0.00,CLR,CLR,0.00,WeatherDisplay:10.37,2013-09-27 04:33:00,
2013-09-26 23:39:00,74.3,58.5,29.82,ESE,108,5.0,10.0,58,0.00,CLR,CLR,0.00,WeatherDisplay:10.37,2013-09-27 04:39:00,
2013-09-26 23:45:00,74.2,58.5,29.82,East,93,5.0,8.0,58,0.00,CLR,CLR,0.00,WeatherDisplay:10.37,2013-09-27 04:45:00,
2013-09-26 23:51:00,74.2,58.9,29.83,SE,144,7.0,9.0,59,0.00,CLR,CLR,0.00,WeatherDisplay:10.37,2013-09-27 04:51:00,
2013-09-26 23:57:00,74.0,58.7,29.83,SSE,159,5.0,9.0,59,0.00,CLR,CLR,0.00,WeatherDisplay:10.37,2013-09-27 04:57:00,